sensor_id;sensor_type;location;lat;lon;timestamp;P1;durP1;ratioP1;P2;durP2;ratioP2
67500;SDS011;54349;52.528;19.760;2023-12-04T02:54:11;4.40;;;2.60;;
67500;SDS011;54349;52.528;19.760;2023-12-04T02:56:39;4.30;;;2.50;;
67500;SDS011;54349;52.528;19.760;2023-12-04T02:59:07;4.80;;;3.10;;
67500;SDS011;54349;52.528;19.760;2023-12-04T03:01:36;5.60;;;3.30;;
67500;SDS011;54349;52.528;19.760;2023-12-04T03:04:04;4.80;;;2.90;;
67500;SDS011;54349;52.528;19.760;2023-12-04T03:06:32;4.70;;;2.90;;
67500;SDS011;54349;52.528;19.760;2023-12-04T03:09:02;5.40;;;3.10;;
67500;SDS011;54349;52.528;19.760;2023-12-04T03:11:31;5.10;;;2.70;;
67500;SDS011;54349;52.528;19.760;2023-12-04T03:14:00;5.00;;;3.00;;
67500;SDS011;54349;52.528;19.760;2023-12-04T03:16:29;5.10;;;3.00;;
67500;SDS011;54349;52.528;19.760;2023-12-04T04:52:48;4.60;;;3.00;;
67500;SDS011;54349;52.528;19.760;2023-12-04T04:55:17;5.40;;;3.30;;
67500;SDS011;54349;52.528;19.760;2023-12-04T04:58:05;5.30;;;2.90;;
67500;SDS011;54349;52.528;19.760;2023-12-04T05:00:33;5.60;;;3.20;;
67500;SDS011;54349;52.528;19.760;2023-12-04T05:03:02;5.60;;;3.40;;
67500;SDS011;54349;52.528;19.760;2023-12-04T05:05:30;4.90;;;3.00;;
67500;SDS011;54349;52.528;19.760;2023-12-04T05:07:58;4.90;;;3.00;;
67500;SDS011;54349;52.528;19.760;2023-12-04T05:10:26;6.60;;;3.70;;
67500;SDS011;54349;52.528;19.760;2023-12-04T05:12:55;4.90;;;3.00;;
67500;SDS011;54349;52.528;19.760;2023-12-04T05:15:23;4.90;;;3.20;;
67500;SDS011;54349;52.528;19.760;2023-12-04T05:56:49;4.70;;;3.20;;
67500;SDS011;54349;52.528;19.760;2023-12-04T05:59:18;5.30;;;3.20;;
67500;SDS011;54349;52.528;19.760;2023-12-04T19:35:54;32.70;;;17.70;;
67500;SDS011;54349;52.528;19.760;2023-12-04T19:38:23;30.00;;;17.70;;
67500;SDS011;54349;52.528;19.760;2023-12-04T19:40:51;34.00;;;19.10;;
67500;SDS011;54349;52.528;19.760;2023-12-04T19:43:20;33.50;;;18.30;;
67500;SDS011;54349;52.528;19.760;2023-12-04T19:45:48;31.40;;;18.40;;
67500;SDS011;54349;52.528;19.760;2023-12-04T19:48:17;31.80;;;19.50;;
67500;SDS011;54349;52.528;19.760;2023-12-04T19:50:48;33.30;;;18.70;;
67500;SDS011;54349;52.528;19.760;2023-12-04T19:53:16;31.20;;;17.80;;
67500;SDS011;54349;52.528;19.760;2023-12-04T19:55:44;31.30;;;18.20;;
67500;SDS011;54349;52.528;19.760;2023-12-04T19:58:12;32.40;;;18.40;;
67500;SDS011;54349;52.528;19.760;2023-12-04T20:00:50;28.50;;;17.40;;
67500;SDS011;54349;52.528;19.760;2023-12-04T20:03:18;32.30;;;18.20;;
67500;SDS011;54349;52.528;19.760;2023-12-04T20:05:47;32.00;;;18.00;;
67500;SDS011;54349;52.528;19.760;2023-12-04T20:08:16;31.60;;;18.40;;
67500;SDS011;54349;52.528;19.760;2023-12-04T20:10:44;32.00;;;18.40;;
67500;SDS011;54349;52.528;19.760;2023-12-04T20:13:12;29.70;;;18.30;;
67500;SDS011;54349;52.528;19.760;2023-12-04T20:15:41;31.00;;;18.10;;
67500;SDS011;54349;52.528;19.760;2023-12-04T20:18:10;28.10;;;17.40;;
67500;SDS011;54349;52.528;19.760;2023-12-04T20:20:42;31.60;;;17.80;;
67500;SDS011;54349;52.528;19.760;2023-12-04T20:23:13;28.10;;;17.10;;
67500;SDS011;54349;52.528;19.760;2023-12-04T20:25:42;29.60;;;17.80;;
67500;SDS011;54349;52.528;19.760;2023-12-04T20:28:12;27.60;;;17.70;;
67500;SDS011;54349;52.528;19.760;2023-12-04T20:45:43;30.50;;;17.40;;
67500;SDS011;54349;52.528;19.760;2023-12-04T21:06:08;27.50;;;16.10;;
67500;SDS011;54349;52.528;19.760;2023-12-04T21:20:23;26.40;;;16.40;;
67500;SDS011;54349;52.528;19.760;2023-12-04T21:22:53;29.60;;;16.80;;
67500;SDS011;54349;52.528;19.760;2023-12-04T22:51:59;29.80;;;16.50;;
67500;SDS011;54349;52.528;19.760;2023-12-04T22:54:28;30.00;;;17.00;;
67500;SDS011;54349;52.528;19.760;2023-12-04T22:56:56;31.70;;;17.80;;
67500;SDS011;54349;52.528;19.760;2023-12-04T22:59:24;28.80;;;17.00;;
67500;SDS011;54349;52.528;19.760;2023-12-04T23:01:52;26.40;;;16.70;;
67500;SDS011;54349;52.528;19.760;2023-12-04T23:04:21;28.10;;;17.00;;
67500;SDS011;54349;52.528;19.760;2023-12-04T23:06:49;27.40;;;17.00;;
67500;SDS011;54349;52.528;19.760;2023-12-04T23:09:17;30.30;;;17.80;;
67500;SDS011;54349;52.528;19.760;2023-12-04T23:11:45;28.00;;;17.40;;
67500;SDS011;54349;52.528;19.760;2023-12-04T23:14:13;29.10;;;17.60;;
67500;SDS011;54349;52.528;19.760;2023-12-04T23:16:43;27.20;;;17.20;;
67500;SDS011;54349;52.528;19.760;2023-12-04T23:19:11;27.90;;;17.60;;
67500;SDS011;54349;52.528;19.760;2023-12-04T23:21:39;30.90;;;17.40;;
67500;SDS011;54349;52.528;19.760;2023-12-04T23:24:07;27.50;;;16.30;;
67500;SDS011;54349;52.528;19.760;2023-12-04T23:26:36;28.10;;;17.00;;
67500;SDS011;54349;52.528;19.760;2023-12-04T23:29:04;26.00;;;16.70;;
67500;SDS011;54349;52.528;19.760;2023-12-04T23:31:32;26.90;;;15.90;;
67500;SDS011;54349;52.528;19.760;2023-12-04T23:34:01;26.20;;;15.90;;
67500;SDS011;54349;52.528;19.760;2023-12-04T23:36:29;26.20;;;16.30;;
67500;SDS011;54349;52.528;19.760;2023-12-04T23:38:58;25.50;;;16.10;;
67500;SDS011;54349;52.528;19.760;2023-12-04T23:41:26;25.10;;;16.00;;
67500;SDS011;54349;52.528;19.760;2023-12-04T23:43:54;25.50;;;15.40;;
67500;SDS011;54349;52.528;19.760;2023-12-04T23:46:22;26.00;;;15.20;;
67500;SDS011;54349;52.528;19.760;2023-12-04T23:48:50;25.40;;;15.40;;
67500;SDS011;54349;52.528;19.760;2023-12-04T23:51:19;24.80;;;15.00;;
